Tiempo atmosférico en la estación meteorológica de San Andrés y Sauces, Santa Cruz de Tenerife (362 m.)



Fecha
DESCASC
Temp. máxima en grados centígrados (hora)
DESCASC
Temp. mínima en grados centígrados (hora)
DESCASC
Temp. media en grados centígrados
DESCASC
Racha de viento máxima en m/sg (hora)
DESCASC
Velocidad máxima media en intervalos de 10 minutos(hora)
DESCASC
Precipitaciones diarias en mm
DESCASC
Precipitaciones de 00:00 a 06:00 en mm
DESCASC
Precipitaciones de 06:00 a 12:00 en mm
DESCASC
Precipitaciones de 12:00 a 18:00 en mm
DESCASC
Precipitaciones de 18:00 a 24:00 en mm
DESCASC
19-01-2020 20.3 (13:40) 14 (19:30) 17.1 9.72 (05:20) 5.28 (02:10) 0 0 0 0 0
18-01-2020 18.5 (12:20) 13 (00:00) 15.8 7.22 (14:10) 4.72 (23:30) 0 0 0 0 0
17-01-2020 19.2 (14:20) 12.1 (00:10) 15.7 7.5 (11:40) 4.44 (06:30) 0 0 0 0 0
16-01-2020 19.2 (11:50) 12.1 (00:00) 15.7 6.39 (15:10) 4.72 (00:10) 0 0 0 0 0
15-01-2020 19.6 (12:50) 12.5 (00:00) 16.1 7.5 (12:10) 5.56 (23:30) 0 0 0 0 0
14-01-2020 19.2 (11:40) 12.2 (00:00) 15.7 8.33 (15:20) 4.72 (19:00) 0 0 0 0 0
13-01-2020 17.3 (16:00) 12.5 (00:00) 14.9 6.67 (23:10) 4.72 (23:00) 0 0 0 0 0
12-01-2020 16.7 (14:40) 13 (00:00) 14.9 7.5 (10:00) 4.72 (04:20) 1.4 0.8 0.2 0 0.4
11-01-2020 16.5 (13:40) 12.9 (00:00) 14.7 7.22 (10:10) 5.83 (10:10) 2 1 0 0 1
10-01-2020 17 (13:00) 14.1 (00:00) 15.6 9.17 (00:20) 6.94 (00:20) 3.6 2 0.2 1.2 0.2
09-01-2020 17.5 (13:50) 13.4 (00:00) 15.4 7.78 (21:10) 5.28 (23:10) 1.8 0 1.4 0 0.4
08-01-2020 16.6 (15:00) 13.6 (00:00) 15.1 8.06 (09:50) 5.56 (10:10) 0.8 0 0.6 0 0.2
07-01-2020 17.5 (14:10) 12.9 (00:00) 15.2 8.33 (12:00) 5.56 (11:40) 1 0 1 0 0
06-01-2020 16.9 (13:10) 13.2 (00:00) 15 9.44 (05:30) 5.83 (05:30) 2.6 0 0.4 1.4 0.8
05-01-2020 19 (14:10) 13.3 (00:00) 16.2 8.61 (16:00) 5.28 (05:30) 0 0 0 0 0
04-01-2020 16.5 (09:20) 12.6 (00:00) 14.6 8.33 (10:10) 4.44 (04:20) 0 0 0 0 0
03-01-2020 19.9 (14:00) 11.5 (00:00) 15.7 9.17 (12:00) 5 (23:10) 0 0 0 0 0
02-01-2020 19.2 (12:50) 12.9 (00:00) 16.1 12.78 (10:30) 7.22 (10:30) 0 0 0 0 0
01-01-2020 20.2 (11:40) 13.1 (00:00) 16.7 10 (13:40) 5.28 (13:00) 0 0 0 0 0
31-12-2019 20 (02:10) 13.1 (00:00) 16.6 6.94 (01:10) 4.17 (02:10) 0 0 0 0 0
30-12-2019 -- (--) -- (--) -- -- (--) -- (--) -- 0 0 -- 0
29-12-2019 23.7 (12:30) 15.4 (00:00) 19.6 6.39 (07:00) 4.17 (04:50) 0 0 0 0 0
28-12-2019 23.9 (14:50) 16.1 (00:00) 20 6.39 (01:00) 4.17 (01:00) 0 0 0 0 0
27-12-2019 21.3 (16:00) 13.7 (00:00) 17.5 5.83 (13:40) 4.44 (23:50) 0 0 0 0 0
26-12-2019 22.2 (15:40) 14.4 (00:00) 18.3 8.33 (01:40) 5.28 (18:30) 0 0 0 0 0
25-12-2019 20.2 (12:00) 16.2 (00:00) 18.2 10.28 (09:30) 5 (14:00) 0 0 0 0 0
24-12-2019 22.9 (14:40) 14.6 (04:30) 18.8 7.78 (03:40) 3.89 (23:50) 0.2 0.2 0 0 0
23-12-2019 19.2 (12:20) 14.8 (00:00) 17 7.78 (03:50) 4.44 (00:40) 0.2 0 0 0.2 0

Gráficas

Temp. máximas Temp. mínimas Temp. medias Precipitaciones Rachas de viento máximas Velocidades máximas media en intervalos de 10 minutos

Datos horarios

Fecha y hora oficial Temperatura (ºC) Velocidad del viento (km/h) Dirección del viento Racha (km/h) Dirección de racha Precipitación (mm) Presión (hPa) Tendencia (hPa) Humedad (%)
2020-01-21 23:00:00 11 14 Sudoeste 21 Sudoeste 0 -- -- 83
2020-01-21 22:00:00 11.1 9 Oeste 17 Sudoeste 0 -- -- 84
2020-01-21 21:00:00 11.3 13 Sudoeste 17 Sudoeste 0 -- -- 84
2020-01-21 20:00:00 11.2 11 Oeste 17 Sudoeste 0 -- -- 85
2020-01-21 19:00:00 11.3 11 Sudoeste 15 Sudoeste 0 -- -- 90
2020-01-21 18:00:00 11.2 4 Noroeste 17 Nordeste 0.2 -- -- 95
2020-01-21 17:00:00 11.2 10 Nordeste 35 Nordeste 0.2 -- -- 98
2020-01-21 16:00:00 11.9 10 Norte 26 Norte 2.4 -- -- 95
2020-01-21 15:00:00 12.4 16 Norte 35 Norte 0 -- -- 93
2020-01-21 14:00:00 14 15 Nordeste 23 Nordeste 0 -- -- 88
2020-01-21 13:00:00 15.5 10 Nordeste 22 Oeste 0 -- -- 79
2020-01-21 12:00:00 11.7 9 Norte 41 Norte 1.4 -- -- 98
2020-01-21 11:00:00 11.6 27 Norte 42 Norte 2.6 -- -- 97
2020-01-21 10:00:00 13.8 10 Norte 19 Norte 0 -- -- 74
2020-01-21 09:00:00 13.4 11 Oeste 20 Noroeste 0 -- -- 73
2020-01-21 08:00:00 12.9 8 Oeste 13 Oeste 0 -- -- 79
2020-01-21 07:00:00 12.8 9 Oeste 15 Sudoeste 0 -- -- 81
2020-01-21 06:00:00 12.6 11 Sudoeste 20 Sudoeste 0 -- -- 83
2020-01-21 05:00:00 12.7 10 Sudoeste 14 Oeste 0 -- -- 84
2020-01-21 04:00:00 12.7 8 Oeste 15 Sudoeste 0 -- -- 84
2020-01-21 03:00:00 12.6 7 Oeste 19 Norte 0.2 -- -- 90
2020-01-21 02:00:00 13.3 12 Norte 22 Norte 0 -- -- 84
2020-01-21 01:00:00 13.5 6 Oeste 16 Norte 0 -- -- 79
2020-01-21 00:00:00 13.3 11 Sudoeste 19 Sudoeste 0 -- -- 71
2020-01-20 23:00:00 13.3 14 Sudoeste 19 Sudoeste 0 -- -- 75
2020-01-20 22:00:00 13.5 9 Oeste 15 Oeste 0 -- -- 75
2020-01-20 21:00:00 13.7 7 Oeste 17 Oeste 0 -- -- 73
2020-01-20 20:00:00 13.6 9 Sudoeste 18 Oeste 0 -- -- 75
2020-01-20 19:00:00 14 6 Noroeste 17 Norte 0 -- -- 75
2020-01-20 18:00:00 14.3 8 Norte 17 Norte 0 -- -- 76
2020-01-20 17:00:00 14.8 10 Nordeste 16 Norte 0 -- -- 77
2020-01-20 16:00:00 15.5 8 Nordeste 22 Nordeste 0 -- -- 70
2020-01-20 15:00:00 15.5 7 Nordeste 16 Nordeste 0 -- -- 73
2020-01-20 14:00:00 15.8 8 Este 15 Este 0 -- -- 75
2020-01-20 13:00:00 15.7 3 Este 13 Este 0 -- -- 73
2020-01-20 12:00:00 15.3 5 Este 14 Este 0 -- -- 76
2020-01-20 11:00:00 14.6 2 Sudoeste 9 Este 0 -- -- 73
2020-01-20 10:00:00 14.1 4 Oeste 11 Sudoeste 0 -- -- 83
2020-01-20 09:00:00 13.4 7 Oeste 18 Noroeste 0 -- -- 86
2020-01-20 08:00:00 13 6 Oeste 13 Oeste 0 -- -- 88
2020-01-20 07:00:00 13.3 6 Noroeste 17 Norte 0 -- -- 87
2020-01-20 06:00:00 13.6 4 Noroeste 17 Nordeste 1 -- -- 93
2020-01-20 05:00:00 14.4 4 Norte 15 Sudoeste 2.4 -- -- 96
2020-01-20 04:00:00 14.5 9 Sudoeste 18 Sudoeste 0.4 -- -- 95
2020-01-20 03:00:00 14.8 3 Sur 21 Sur 0.2 -- -- 90
2020-01-20 02:00:00 14.4 12 Sudoeste 16 Sudoeste 0 -- -- 92
2020-01-20 01:00:00 15.4 6 Sudeste 17 Sudoeste 0 -- -- 86
2020-01-20 00:00:00 15.3 8 Sur 25 Sudoeste 0 -- -- 81
2020-01-19 23:00:00 15.1 6 Sur 15 Sudoeste 0 -- -- 85
2020-01-19 22:00:00 15.1 9 Sur 19 Sudoeste 0 -- -- 84
2020-01-19 21:00:00 14.5 14 Sudoeste 21 Sudoeste 0 -- -- 83
2020-01-19 20:00:00 14.2 12 Sudoeste 17 Sudoeste 0 -- -- 81
2020-01-19 19:00:00 14.6 11 Sudoeste 18 Sudoeste 0 -- -- 83
2020-01-19 18:00:00 15.7 7 Sur 18 Este 0 -- -- 81
2020-01-19 17:00:00 17.9 12 Este 22 Nordeste 0 -- -- 74
2020-01-19 16:00:00 18.6 14 Este 23 Este 0 -- -- 72
2020-01-19 15:00:00 19.7 14 Este 28 Este 0 -- -- 66
2020-01-19 14:00:00 19.7 12 Sudeste 22 Este 0 -- -- 58
2020-01-19 13:00:00 19.5 14 Sur 23 Sudeste 0 -- -- 54
2020-01-19 12:00:00 19.2 14 Sudeste 26 Este 0 -- -- 61
2020-01-19 11:00:00 19 12 Este 21 Sudeste 0 -- -- 58
2020-01-19 10:00:00 18.4 12 Sudeste 24 Sudoeste 0 -- -- 48
2020-01-19 09:00:00 17.9 14 Sudoeste 27 Sudoeste 0 -- -- 28
2020-01-19 08:00:00 16.2 13 Sudoeste 28 Sudoeste 0 -- -- 31
2020-01-19 07:00:00 15.7 13 Sudoeste 35 Sudoeste 0 -- -- 36
2020-01-19 06:00:00 16.4 13 Sudoeste 35 Sudoeste 0 -- -- 30
2020-01-19 05:00:00 16.3 13 Sudoeste 29 Sur 0 -- -- 34
2020-01-19 04:00:00 16.4 14 Sudoeste 28 Sudoeste 0 -- -- 33
2020-01-19 03:00:00 16.4 15 Sudoeste 35 Sudoeste 0 -- -- 32
2020-01-19 02:00:00 16 15 Sudoeste 31 Sudoeste 0 -- -- 33
2020-01-19 01:00:00 15.7 14 Sudoeste 29 Oeste 0 -- -- 43
2020-01-19 00:00:00 15.3 15 Sudoeste 25 Sudoeste 0 -- -- 48
2020-01-18 23:00:00 14.4 10 Sur 23 Sudoeste 0 -- -- 79
2020-01-18 22:00:00 14.4 10 Sudoeste 20 Sudoeste 0 -- -- 80
2020-01-18 21:00:00 14.4 13 Sudoeste 23 Sudoeste 0 -- -- 81
2020-01-18 20:00:00 14.5 13 Sudoeste 22 Sur 0 -- -- 82
2020-01-18 19:00:00 15.1 9 Sur 21 Sudeste 0 -- -- 83
2020-01-18 18:00:00 15.6 7 Sur 17 Sudoeste 0 -- -- 81
2020-01-18 17:00:00 16.6 7 Sudeste 21 Este 0 -- -- 78
2020-01-18 16:00:00 17 8 Sudeste 21 Este 0 -- -- 80
2020-01-18 15:00:00 17.1 12 Este 26 Este 0 -- -- 80
2020-01-18 14:00:00 17.2 12 Este 22 Este 0 -- -- 81
2020-01-18 13:00:00 17.7 11 Sudeste 24 Este 0 -- -- 76
2020-01-18 12:00:00 18.2 11 Este 25 Este 0 -- -- 73
2020-01-18 11:00:00 17.3 8 Sudeste 20 Este 0 -- -- 75
2020-01-18 10:00:00 15.3 6 Sur 18 Sudoeste 0 -- -- 79
2020-01-18 09:00:00 14.2 13 Sudoeste 25 Sudoeste 0 -- -- 73
2020-01-18 08:00:00 13.5 14 Sudoeste 22 Sudoeste 0 -- -- 80
2020-01-18 07:00:00 13.6 12 Sudoeste 19 Sudoeste 0 -- -- 84
2020-01-18 06:00:00 13.5 11 Sudoeste 20 Sudoeste 0 -- -- 85
2020-01-18 05:00:00 13.5 10 Sudoeste 23 Sur 0 -- -- 83
2020-01-18 04:00:00 13.6 12 Sudoeste 22 Sudoeste 0 -- -- 76
2020-01-18 03:00:00 13.6 12 Sudoeste 21 Sudoeste 0 -- -- 73
2020-01-18 02:00:00 13.5 10 Sur 21 Sudoeste 0 -- -- 78
2020-01-18 01:00:00 13.9 13 Sudoeste 22 Sudoeste 0 -- -- 76
2020-01-18 00:00:00 13 14 Sudoeste 22 Sudoeste 0 -- -- 69
2020-01-17 23:00:00 12.9 13 Sudoeste 15 Sudoeste 0 -- -- 68
2020-01-17 22:00:00 12.6 10 Sudoeste 13 Sudoeste 0 -- -- 76
2020-01-17 21:00:00 12.9 8 Sudoeste 13 Sudoeste 0 -- -- 70
2020-01-17 20:00:00 13.7 9 Oeste 17 Sudoeste 0 -- -- 57
2020-01-17 19:00:00 14.5 10 Oeste 14 Sudoeste 0 -- -- 64
2020-01-17 18:00:00 15.2 9 Oeste 11 Oeste 0 -- -- 73
2020-01-17 17:00:00 18 5 Nordeste 8 Nordeste 0 -- -- 62
2020-01-17 16:00:00 18.7 5 Nordeste 13 Este 0 -- -- 60
2020-01-17 15:00:00 18.8 8 Nordeste 19 Nordeste 0 -- -- 59
2020-01-17 14:00:00 19 10 Este 22 Este 0 -- -- 60
2020-01-17 13:00:00 18.6 14 Este 26 Nordeste 0 -- -- 62
2020-01-17 12:00:00 18 13 Sudeste 27 Este 0 -- -- 63
2020-01-17 11:00:00 17.5 12 Sudeste 26 Sudeste 0 -- -- 61
2020-01-17 10:00:00 16.6 13 Sudeste 22 Sudeste 0 -- -- 63
2020-01-17 09:00:00 15.2 12 Sudoeste 24 Sudoeste 0 -- -- 51
2020-01-17 08:00:00 14 13 Sudoeste 25 Sudoeste 0 -- -- 37
2020-01-17 07:00:00 13.6 16 Sudoeste 25 Sudoeste 0 -- -- 47
2020-01-17 06:00:00 13 15 Sudoeste 22 Sudoeste 0 -- -- 67
2020-01-17 05:00:00 13 14 Sudoeste 20 Sudoeste 0 -- -- 53
2020-01-17 04:00:00 12.7 15 Sudoeste 19 Sudoeste 0 -- -- 56
2020-01-17 03:00:00 12.9 13 Sudoeste 21 Sudoeste 0 -- -- 54
2020-01-17 02:00:00 12.9 14 Sudoeste 21 Sudoeste 0 -- -- 50
2020-01-17 01:00:00 12.2 14 Sudoeste 19 Sudoeste 0 -- -- 59
2020-01-17 00:00:00 12.3 14 Sudoeste 19 Sudoeste 0 -- -- 63
2020-01-16 23:00:00 12.9 14 Sudoeste 19 Sudoeste 0 -- -- 63
2020-01-16 22:00:00 13.1 14 Sudoeste 20 Sudoeste 0 -- -- 75
2020-01-16 21:00:00 13 13 Sudoeste 16 Sudoeste 0 -- -- 76
2020-01-16 20:00:00 13.3 12 Sudoeste 17 Sudoeste 0 -- -- 74
2020-01-16 19:00:00 13.7 13 Sudoeste 16 Sudoeste 0 -- -- 78
2020-01-16 18:00:00 15 9 Sudoeste 15 Sudoeste 0 -- -- 75
2020-01-16 17:00:00 17.3 9 Sudeste 17 Este 0 -- -- 64
2020-01-16 16:00:00 18.4 10 Este 23 Este 0 -- -- 60
2020-01-16 15:00:00 18.7 11 Este 22 Nordeste 0 -- -- 57
2020-01-16 14:00:00 18.9 9 Este 22 Este 0 -- -- 60
2020-01-16 13:00:00 19 9 Este 23 Este 0 -- -- 54
2020-01-16 12:00:00 19.1 12 Este 18 Este 0 -- -- 52
2020-01-16 11:00:00 17 6 Este 11 Sudoeste 0 -- -- 55
2020-01-16 10:00:00 14.5 7 Sudoeste 18 Sudoeste 0 -- -- 56
2020-01-16 09:00:00 13.2 14 Sudoeste 19 Sudoeste 0 -- -- 50
2020-01-16 08:00:00 12.4 13 Oeste 19 Oeste 0 -- -- 47
2020-01-16 07:00:00 12.1 13 Oeste 19 Oeste 0 -- -- 49
2020-01-16 06:00:00 12.5 13 Oeste 19 Sudoeste 0 -- -- 54
2020-01-16 05:00:00 12.4 14 Sudoeste 19 Oeste 0 -- -- 56
2020-01-16 04:00:00 12.9 14 Sudoeste 18 Oeste 0 -- -- 55
2020-01-16 03:00:00 13.2 12 Oeste 19 Oeste 0 -- -- 55
2020-01-16 02:00:00 13 13 Oeste 18 Sudoeste 0 -- -- 59
2020-01-16 01:00:00 13 13 Sudoeste 22 Sudoeste 0 -- -- 62
2020-01-16 00:00:00 14 19 Sudoeste 26 Sudoeste 0 -- -- 59
2020-01-15 23:00:00 13.7 13 Sudoeste 23 Sudoeste 0 -- -- 58
2020-01-15 22:00:00 14.1 15 Sudoeste 21 Sudoeste 0 -- -- 64
2020-01-15 21:00:00 13.6 14 Sudoeste 21 Sudoeste 0 -- -- 67
2020-01-15 20:00:00 13.8 9 Oeste 22 Sudoeste 0 -- -- 67
2020-01-15 19:00:00 14.5 14 Sudoeste 18 Sudoeste 0 -- -- 66
2020-01-15 18:00:00 15.5 9 Sudoeste 15 Sudoeste 0 -- -- 64
2020-01-15 17:00:00 17.9 9 Sur 21 Sudeste 0 -- -- 50
2020-01-15 16:00:00 18.7 5 Nordeste 18 Este 0 -- -- 54
2020-01-15 15:00:00 18.5 7 Norte 23 Nordeste 0 -- -- 49
2020-01-15 14:00:00 18.8 16 Nordeste 23 Este 0 -- -- 56
2020-01-15 13:00:00 19.4 15 Este 27 Este 0 -- -- 52
2020-01-15 12:00:00 19.1 12 Este 24 Este 0 -- -- 48
2020-01-15 11:00:00 17 4 Noroeste 6 Norte 0 -- -- 45
2020-01-15 10:00:00 14.9 3 Sudeste 14 Oeste 0 -- -- 56
2020-01-15 09:00:00 14.6 8 Oeste 20 Oeste 0 -- -- 44
2020-01-15 08:00:00 13.1 16 Sudoeste 22 Sudoeste 0 -- -- 46
2020-01-15 07:00:00 13.3 13 Oeste 22 Sudoeste 0 -- -- 47
2020-01-15 06:00:00 13.1 13 Oeste 21 Sudoeste 0 -- -- 48
2020-01-15 05:00:00 12.7 12 Oeste 18 Sudoeste 0 -- -- 53
2020-01-15 04:00:00 13.1 14 Sudoeste 19 Oeste 0 -- -- 51
2020-01-15 03:00:00 13.3 11 Oeste 20 Oeste 0 -- -- 52
2020-01-15 02:00:00 13.9 14 Oeste 26 Sudoeste 0 -- -- 49
2020-01-15 01:00:00 13.9 10 Sudoeste 19 Oeste 0 -- -- 52
2020-01-15 00:00:00 13.4 15 Sudoeste 19 Sudoeste 0 -- -- 64
2020-01-14 23:00:00 13.2 12 Sudoeste 17 Sudoeste 0 -- -- 68
2020-01-14 22:00:00 13.9 12 Oeste 24 Sudoeste 0 -- -- 59
2020-01-14 21:00:00 14.2 12 Sudoeste 21 Oeste 0 -- -- 59
2020-01-14 20:00:00 14.4 15 Sudoeste 22 Sudoeste 0 -- -- 67
2020-01-14 19:00:00 14.8 17 Sudoeste 21 Sudoeste 0 -- -- 71
2020-01-14 18:00:00 15.6 6 Sudoeste 13 Norte 0 -- -- 68
2020-01-14 17:00:00 18.4 5 Norte 21 Sudoeste 0 -- -- 57
2020-01-14 16:00:00 18.7 13 Sudoeste 30 Sur 0 -- -- 53
2020-01-14 15:00:00 18.8 9 Sudoeste 26 Sur 0 -- -- 55
2020-01-14 14:00:00 18.9 10 Sur 25 Sudeste 0 -- -- 54
2020-01-14 13:00:00 18 11 Norte 26 Norte 0 -- -- 58
2020-01-14 12:00:00 19 6 Noroeste 23 Sudeste 0 -- -- 51
2020-01-14 11:00:00 18.1 9 Norte 18 Sudoeste 0 -- -- 50
2020-01-14 10:00:00 16.8 6 Sudeste 19 Sudeste 0 -- -- 56
2020-01-14 09:00:00 14.3 9 Sudoeste 24 Sudoeste 0 -- -- 50
2020-01-14 08:00:00 13.4 11 Sudoeste 23 Sur 0 -- -- 61
2020-01-14 07:00:00 12.4 6 Sudoeste 18 Sudoeste 0 -- -- 57
2020-01-14 06:00:00 12.3 9 Sudoeste 20 Oeste 0 -- -- 55
2020-01-14 05:00:00 12.6 13 Sudoeste 19 Sudoeste 0 -- -- 59
2020-01-14 04:00:00 12.7 11 Oeste 23 Oeste 0 -- -- 60
2020-01-14 03:00:00 12.9 15 Sudoeste 22 Sudoeste 0 -- -- 62
2020-01-14 02:00:00 13 13 Oeste 21 Oeste 0 -- -- 62
2020-01-14 01:00:00 12.9 13 Oeste 22 Oeste 0 -- -- 64
2020-01-14 00:00:00 13.3 13 Sudoeste 24 Oeste 0 -- -- 63
2020-01-13 23:00:00 13.6 17 Sudoeste 23 Sudoeste 0 -- -- 62
2020-01-13 22:00:00 12.9 12 Sudoeste 20 Sudoeste 0 -- -- 69
2020-01-13 21:00:00 13 12 Sudoeste 18 Sudoeste 0 -- -- 81
2020-01-13 20:00:00 13.4 12 Sudoeste 17 Sudoeste 0 -- -- 85
2020-01-13 19:00:00 13.9 9 Sudoeste 13 Sudoeste 0 -- -- 88
2020-01-13 18:00:00 15.6 3 Sur 13 Este 0 -- -- 84
2020-01-13 17:00:00 16.1 6 Este 14 Este 0 -- -- 81
2020-01-13 16:00:00 17.3 8 Este 14 Este 0 -- -- 79
2020-01-13 15:00:00 16.3 7 Este 14 Este 0 -- -- 81
2020-01-13 14:00:00 16.4 6 Este 18 Este 0 -- -- 79
2020-01-13 13:00:00 16.4 11 Este 22 Este 0 -- -- 80
2020-01-13 12:00:00 16.2 10 Este 22 Este 0 -- -- 79
2020-01-13 11:00:00 15.6 9 Sudeste 17 Sudeste 0 -- -- 80
2020-01-13 10:00:00 14.5 9 Sudoeste 20 Sudoeste 0 -- -- 77
2020-01-13 09:00:00 13.6 14 Sudoeste 19 Sudoeste 0 -- -- 75
2020-01-13 08:00:00 13.1 13 Sudoeste 17 Sudoeste 0 -- -- 79
2020-01-13 07:00:00 12.9 13 Sudoeste 16 Sudoeste 0 -- -- 80
2020-01-13 06:00:00 13.1 13 Sudoeste 17 Sudoeste 0 -- -- 79
2020-01-13 05:00:00 13.7 13 Sudoeste 21 Sudoeste 0 -- -- 76
2020-01-13 04:00:00 13.7 11 Sudoeste 19 Sudoeste 0 -- -- 76
2020-01-13 03:00:00 13.9 10 Sudoeste 22 Sudoeste 0 -- -- 77
2020-01-13 02:00:00 13.5 14 Sudoeste 19 Sudoeste 0 -- -- 77
2020-01-13 01:00:00 14.1 10 Sudoeste 17 Sudoeste 0 -- -- 78
2020-01-13 00:00:00 14 8 Sudoeste 23 Sudoeste 0 -- -- 80
2020-01-12 23:00:00 14.2 9 Sur 22 Sudoeste 0 -- -- 84
2020-01-12 22:00:00 14.4 9 Sudoeste 26 Sudoeste 0 -- -- 82
2020-01-12 21:00:00 14 6 Sudoeste 22 Sudoeste 0.4 -- -- 89
2020-01-12 20:00:00 14 12 Sudoeste 18 Oeste 0 -- -- 88
2020-01-12 19:00:00 14.8 4 Sur 16 Sudoeste 0 -- -- 80
2020-01-12 18:00:00 14.7 6 Sudoeste 14 Sudoeste 0 -- -- 78
2020-01-12 17:00:00 15 4 Sudeste 14 Este 0 -- -- 78
2020-01-12 16:00:00 15.2 11 Este 17 Este 0 -- -- 78
2020-01-12 15:00:00 16.3 11 Este 18 Este 0 -- -- 77
2020-01-12 14:00:00 16.4 8 Sur 20 Sudeste 0 -- -- 69
2020-01-12 13:00:00 15.9 12 Este 22 Sudeste 0 -- -- 67
2020-01-12 12:00:00 15.1 14 Sudeste 24 Sudeste 0 -- -- 72
2020-01-12 11:00:00 14.6 10 Sur 22 Sudoeste 0 -- -- 83
2020-01-12 10:00:00 14.4 14 Sudeste 27 Sudeste 0 -- -- 84
2020-01-12 09:00:00 14.1 14 Sudoeste 22 Sudoeste 0 -- -- 83
2020-01-12 08:00:00 13.9 9 Sudoeste 20 Sudoeste 0 -- -- 84
2020-01-12 07:00:00 13.3 12 Sudoeste 19 Sudoeste 0.2 -- -- 90
2020-01-12 06:00:00 13.3 5 Este 23 Sudoeste 0.8 -- -- 92
2020-01-12 05:00:00 13.6 5 Sudoeste 24 Sudoeste 0 -- -- 85
2020-01-12 04:00:00 13.6 8 Sur 23 Sudoeste 0 -- -- 85
2020-01-12 03:00:00 13.5 15 Sudoeste 19 Sudoeste 0 -- -- 83
2020-01-12 02:00:00 13.4 10 Sudoeste 16 Sudoeste 0 -- -- 86
2020-01-12 01:00:00 13.2 12 Sudoeste 22 Sudoeste 0 -- -- 87
2020-01-12 00:00:00 13 15 Sudoeste 22 Sudoeste 0.6 -- -- 88
2020-01-11 23:00:00 13.8 12 Sudoeste 18 Sudoeste 0 -- -- 81
2020-01-11 22:00:00 13.4 12 Sudoeste 18 Sudoeste 0 -- -- 89
2020-01-11 21:00:00 13.2 6 Sudoeste 17 Este 0.2 -- -- 91
2020-01-11 20:00:00 14.1 7 Sudoeste 17 Sur 0.2 -- -- 84
2020-01-11 19:00:00 14.3 3 Oeste 16 Este 0 -- -- 89
2020-01-11 18:00:00 14.8 10 Nordeste 22 Este 0 -- -- 83
2020-01-11 17:00:00 15.2 12 Nordeste 19 Nordeste 0 -- -- 83
2020-01-11 16:00:00 15.6 5 Sudoeste 17 Sudoeste 0 -- -- 75
2020-01-11 15:00:00 15.2 8 Sudeste 21 Este 0 -- -- 83
2020-01-11 14:00:00 16.3 4 Sudeste 15 Este 0 -- -- 74
2020-01-11 13:00:00 15.8 10 Nordeste 19 Nordeste 0 -- -- 77
2020-01-11 12:00:00 15.8 5 Este 18 Nordeste 0 -- -- 80
2020-01-11 11:00:00 15.3 4 Sudoeste 26 Sudoeste 0 -- -- 76
2020-01-11 10:00:00 14.4 18 Sudoeste 24 Sudoeste 0 -- -- 76
2020-01-11 09:00:00 13.8 12 Sudoeste 21 Sudoeste 0 -- -- 79
2020-01-11 08:00:00 13.4 12 Sudoeste 19 Sudoeste 0 -- -- 84
2020-01-11 07:00:00 13.3 8 Sudoeste 22 Sudoeste 0 -- -- 84
2020-01-11 06:00:00 13.4 13 Sudoeste 20 Sudoeste 0 -- -- 84
2020-01-11 05:00:00 14.1 4 Sudoeste 22 Sudoeste 0 -- -- 85
2020-01-11 04:00:00 14.4 10 Sudoeste 24 Sudoeste 0 -- -- 87
2020-01-11 03:00:00 14.3 6 Sur 21 Sudoeste 0.4 -- -- 92
2020-01-11 02:00:00 14.4 10 Sudoeste 19 Sudoeste 0.4 -- -- 93
2020-01-11 01:00:00 14.6 9 Sudoeste 18 Sudoeste 0.2 -- -- 93
2020-01-11 00:00:00 14.1 11 Sudoeste 18 Sudoeste 0.2 -- -- 88
2020-01-10 23:00:00 14.2 15 Sudoeste 23 Sudoeste 0 -- -- 86
2020-01-10 22:00:00 14.4 8 Sur 28 Sudoeste 0 -- -- 83
2020-01-10 21:00:00 14.6 11 Sudoeste 18 Sudeste 0 -- -- 82
2020-01-10 20:00:00 15.2 15 Sudoeste 31 Sudoeste 0 -- -- 74
2020-01-10 19:00:00 15.1 12 Sudoeste 21 Sudoeste 0 -- -- 80
2020-01-10 18:00:00 15.5 13 Sudoeste 21 Sudoeste 0.4 -- -- 83
2020-01-10 17:00:00 15.8 9 Sur 20 Sur 0 -- -- 87
2020-01-10 16:00:00 16 10 Sur 17 Sudeste 0 -- -- 87
2020-01-10 15:00:00 15.9 12 Este 19 Este 0.2 -- -- 91
2020-01-10 14:00:00 16.3 5 Este 24 Nordeste 0.6 -- -- 91
2020-01-10 13:00:00 17 8 Sur 25 Sudeste 0 -- -- 78
2020-01-10 12:00:00 16.1 9 Sur 19 Sudoeste 0 -- -- 84
2020-01-10 11:00:00 15.7 14 Este 24 Nordeste 0 -- -- 92
2020-01-10 10:00:00 15.4 12 Este 31 Nordeste 0 -- -- 93
2020-01-10 09:00:00 15.1 11 Sudoeste 24 Sudoeste 0 -- -- 84
2020-01-10 08:00:00 14.7 14 Sudoeste 20 Sudoeste 0 -- -- 88
2020-01-10 07:00:00 14.9 12 Sudoeste 22 Sudoeste 0.2 -- -- 88
2020-01-10 06:00:00 14.7 11 Sur 21 Sudoeste 0 -- -- 90
2020-01-10 05:00:00 14.6 5 Sudeste 25 Sudoeste 1.8 -- -- 92
2020-01-10 04:00:00 14.5 13 Sudoeste 26 Sudoeste 0.2 -- -- 88
2020-01-10 03:00:00 15.3 10 Sudeste 28 Sur 0 -- -- 79
2020-01-10 02:00:00 15.2 13 Sudoeste 27 Sudoeste 0 -- -- 81
2020-01-10 01:00:00 15.5 13 Sudoeste 33 Sudoeste 0 -- -- 76
2020-01-10 00:00:00 14.7 13 Sudoeste 25 Sudoeste 0 -- -- 79
2020-01-09 23:00:00 14.2 17 Sudoeste 25 Sudoeste 0.4 -- -- 89
2020-01-09 22:00:00 15.4 13 Sudoeste 28 Oeste 0 -- -- 78
2020-01-09 21:00:00 15.4 9 Sudoeste 25 Sudoeste 0 -- -- 73
2020-01-09 20:00:00 15.1 12 Sudoeste 20 Sudoeste 0 -- -- 69
2020-01-09 19:00:00 15 7 Oeste 22 Sudoeste 0 -- -- 73
2020-01-09 18:00:00 15 4 Este 14 Sudoeste 0 -- -- 79
2020-01-09 17:00:00 15 7 Nordeste 22 Nordeste 0 -- -- 79
2020-01-09 16:00:00 15.7 10 Nordeste 21 Nordeste 0 -- -- 79
2020-01-09 15:00:00 16.8 10 Este 19 Este 0 -- -- 72
2020-01-09 14:00:00 17.4 10 Este 21 Este 0 -- -- 74
2020-01-09 13:00:00 16.3 7 Nordeste 19 Sudoeste 0 -- -- 77
2020-01-09 12:00:00 15.1 11 Sudoeste 17 Sudoeste 0 -- -- 81
2020-01-09 11:00:00 14.2 10 Nordeste 18 Nordeste 0.2 -- -- 89
2020-01-09 10:00:00 13.7 7 Oeste 22 Nordeste 0.2 -- -- 90
2020-01-09 09:00:00 13.4 14 Sudoeste 21 Sudoeste 0.8 -- -- 91
2020-01-09 08:00:00 13.7 9 Sudoeste 18 Sudoeste 0 -- -- 82
2020-01-09 07:00:00 13.8 10 Sudoeste 18 Sudoeste 0.2 -- -- 88
2020-01-09 06:00:00 14.4 11 Sudoeste 22 Este 0 -- -- 82
2020-01-09 05:00:00 14.2 10 Este 22 Nordeste 0 -- -- 85
2020-01-09 04:00:00 14.5 13 Nordeste 23 Nordeste 0 -- -- 82
2020-01-09 03:00:00 14.3 4 Sur 22 Nordeste 0 -- -- 81
2020-01-09 02:00:00 14.6 14 Este 23 Este 0 -- -- 81
2020-01-09 01:00:00 14.3 8 Este 19 Este 0 -- -- 82
2020-01-09 00:00:00 14.2 5 Este 14 Este 0 -- -- 83
2020-01-08 23:00:00 14 8 Sudoeste 13 Sur 0 -- -- 84
2020-01-08 22:00:00 14.2 6 Oeste 17 Sudoeste 0.2 -- -- 85
2020-01-08 21:00:00 14 7 Oeste 14 Oeste 0 -- -- 73
2020-01-08 20:00:00 13.9 8 Oeste 15 Sudoeste 0 -- -- 82
2020-01-08 19:00:00 14.4 4 Sur 12 Sudoeste 0 -- -- 84
2020-01-08 18:00:00 14.8 6 Sudoeste 13 Sudoeste 0 -- -- 78
2020-01-08 17:00:00 15 6 Nordeste 14 Este 0 -- -- 77
2020-01-08 16:00:00 15.8 8 Nordeste 13 Nordeste 0 -- -- 71
2020-01-08 15:00:00 16.6 10 Este 17 Este 0 -- -- 68
2020-01-08 14:00:00 15.4 13 Este 25 Este 0 -- -- 74
2020-01-08 13:00:00 15.7 12 Este 25 Nordeste 0 -- -- 77
2020-01-08 12:00:00 15.5 15 Este 22 Este 0 -- -- 76
2020-01-08 11:00:00 15.9 16 Este 28 Este 0 -- -- 74
2020-01-08 10:00:00 15.2 18 Este 29 Este 0 -- -- 77
2020-01-08 09:00:00 14.4 9 Este 17 Sudoeste 0.6 -- -- 87
2020-01-08 08:00:00 14.1 7 Sudoeste 16 Este 0 -- -- 81
2020-01-08 07:00:00 14.4 8 Sudoeste 24 Sudoeste 0 -- -- 75
2020-01-08 06:00:00 14.1 14 Sudoeste 22 Sudoeste 0 -- -- 73
2020-01-08 05:00:00 14 9 Sudoeste 19 Sudoeste 0 -- -- 72
2020-01-08 04:00:00 14.3 11 Sudoeste 23 Sudoeste 0 -- -- 79
2020-01-08 03:00:00 14.1 12 Sudoeste 22 Sudoeste 0 -- -- 75
2020-01-08 02:00:00 14.1 6 Sudoeste 15 Sudoeste 0 -- -- 80
2020-01-08 01:00:00 14 5 Sudoeste 21 Este 0 -- -- 83
2020-01-08 00:00:00 14.6 12 Este 22 Este 0 -- -- 83
2020-01-07 23:00:00 14.9 14 Este 27 Este 0 -- -- 83
2020-01-07 22:00:00 14.6 11 Sudoeste 20 Sudoeste 0 -- -- 78
2020-01-07 21:00:00 14.3 10 Sudoeste 17 Sudoeste 0 -- -- 77
2020-01-07 20:00:00 14.1 10 Sudoeste 17 Sudoeste 0 -- -- 80
2020-01-07 19:00:00 14.8 9 Sudeste 17 Sudeste 0 -- -- 75
2020-01-07 18:00:00 15 11 Este 22 Este 0 -- -- 76
2020-01-07 17:00:00 15.4 10 Este 21 Este 0 -- -- 77
2020-01-07 16:00:00 15.9 12 Este 22 Este 0 -- -- 75
2020-01-07 15:00:00 16.4 13 Este 21 Este 0 -- -- 71
2020-01-07 14:00:00 17.4 11 Este 21 Nordeste 0 -- -- 61
2020-01-07 13:00:00 16.5 9 Este 26 Este 0 -- -- 73
2020-01-07 12:00:00 15.7 18 Este 30 Este 0 -- -- 74
2020-01-07 11:00:00 15.2 11 Este 22 Sur 0 -- -- 78
2020-01-07 10:00:00 14.5 9 Sudoeste 22 Sudoeste 0 -- -- 78
2020-01-07 09:00:00 13.8 13 Sudoeste 23 Sudoeste 0 -- -- 80
2020-01-07 08:00:00 13 15 Sudoeste 27 Sudoeste 0 -- -- 83
2020-01-07 07:00:00 13.2 17 Sudoeste 23 Sudoeste 1 -- -- 89
2020-01-07 06:00:00 14 13 Sudoeste 17 Sudoeste 0 -- -- 81
2020-01-07 05:00:00 14 9 Sudoeste 18 Sudoeste 0 -- -- 81
2020-01-07 04:00:00 13.9 11 Este 20 Sudoeste 0 -- -- 83
2020-01-07 03:00:00 13.7 10 Sudoeste 21 Sudoeste 0 -- -- 82
2020-01-07 02:00:00 13.5 13 Sudoeste 23 Sudoeste 0 -- -- 81
2020-01-07 01:00:00 13.5 13 Sudoeste 26 Sudoeste 0 -- -- 79
2020-01-07 00:00:00 13.6 8 Oeste 22 Sudoeste 0.6 -- -- 83
2020-01-06 23:00:00 13.7 10 Norte 23 Este 0.2 -- -- 90
2020-01-06 22:00:00 13.4 13 Sudoeste 18 Oeste 0 -- -- 77
2020-01-06 21:00:00 13.9 11 Sudoeste 16 Sudoeste 0 -- -- 82
2020-01-06 20:00:00 14.4 8 Oeste 17 Sudoeste 0 -- -- 84
2020-01-06 19:00:00 14.4 10 Oeste 18 Oeste 0 -- -- 86
2020-01-06 18:00:00 14.6 9 Oeste 22 Norte 0 -- -- 86
2020-01-06 17:00:00 14.8 8 Oeste 17 Sudoeste 0 -- -- 84
2020-01-06 16:00:00 14.4 6 Norte 26 Nordeste 0.6 -- -- 90
2020-01-06 15:00:00 14.8 9 Sudoeste 18 Nordeste 0.8 -- -- 87
2020-01-06 14:00:00 16.4 5 Este 19 Sudeste 0 -- -- 79
2020-01-06 13:00:00 16.8 6 Sudeste 18 Este 0 -- -- 73
2020-01-06 12:00:00 16.1 9 Sudoeste 18 Este 0 -- -- 80
2020-01-06 11:00:00 15.6 5 Sudeste 21 Sudoeste 0 -- -- 81
2020-01-06 10:00:00 14.5 7 Sur 19 Oeste 0 -- -- 84
2020-01-06 09:00:00 13.9 9 Sudoeste 17 Sudoeste 0 -- -- 87